Time;durP1;ratioP1;P1;durP2;ratioP2;P2;SDS_P1;SDS_P2;PMS_P1;PMS_P2;Temp;Humidity;BMP_temperature;BMP_pressure;BME280_temperature;BME280_humidity;BME280_pressure;Samples;Min_cycle;Max_cycle;Signal;HPM_P1;HPM_P2
2022/11/05 00:09:54;;;;;;;0.60;0.10;;;11.10;1.00;;;;;;4975437;28;20960;-75
2022/11/05 00:17:54;;;;;;;0.50;0.10;;;11.10;1.00;;;;;;4988704;28;20480;-74
2022/11/05 00:20:23;;;;;;;0.50;0.10;;;11.10;1.00;;;;;;4977170;28;20501;-74
2022/11/05 00:25:36;;;;;;;0.50;0.10;;;11.10;1.00;;;;;;4990256;28;20483;-74
2022/11/05 00:28:05;;;;;;;0.50;0.10;;;11.10;1.00;;;;;;4997226;28;20453;-74
2022/11/05 00:30:33;;;;;;;0.50;0.10;;;11.20;1.00;;;;;;4996598;28;20445;-74
2022/11/05 00:33:02;;;;;;;0.50;0.10;;;11.20;1.00;;;;;;4985788;28;20454;-74
2022/11/05 00:35:31;;;;;;;2.20;0.50;;;11.10;1.00;;;;;;4973411;28;21033;-74
2022/11/05 00:37:59;;;;;;;0.50;0.10;;;11.10;1.00;;;;;;4980303;28;20481;-74
2022/11/05 00:40:27;;;;;;;0.50;0.10;;;11.00;1.00;;;;;;4993073;28;20456;-74
2022/11/05 00:45:40;;;;;;;0.50;0.10;;;;;;;;;;4973819;28;20470;-74
2022/11/05 00:50:55;;;;;;;0.60;0.10;;;10.90;1.00;;;;;;4988384;28;21125;-74
2022/11/05 00:53:23;;;;;;;0.50;0.10;;;10.90;1.00;;;;;;4975426;28;20457;-75
2022/11/05 00:55:51;;;;;;;0.50;0.10;;;10.90;1.00;;;;;;4984235;28;20470;-75
2022/11/05 00:58:21;;;;;;;0.50;0.10;;;10.90;1.00;;;;;;4994398;28;21007;-74
2022/11/05 05:02:55;;;;;;;0.50;0.10;;;11.30;1.00;;;;;;4909301;29;20572;-75
2022/11/05 05:05:22;;;;;;;0.50;0.10;;;11.20;1.00;;;;;;4915230;29;20457;-75
2022/11/05 05:07:50;;;;;;;0.50;0.10;;;11.20;1.00;;;;;;4916090;29;20455;-73
2022/11/05 05:10:18;;;;;;;0.50;0.10;;;11.10;1.00;;;;;;4917854;29;20449;-75
2022/11/05 05:12:47;;;;;;;0.50;0.10;;;11.10;1.00;;;;;;4907653;29;20979;-75
2022/11/05 05:15:15;;;;;;;0.50;0.10;;;11.10;1.00;;;;;;4909959;29;20449;-74
2022/11/05 05:17:43;;;;;;;0.50;0.10;;;11.10;1.00;;;;;;4909960;29;20474;-74
2022/11/05 05:22:57;;;;;;;0.50;0.10;;;11.10;1.00;;;;;;4910735;29;20952;-75
2022/11/05 05:25:25;;;;;;;0.50;0.20;;;11.10;1.00;;;;;;4908794;29;20494;-74
2022/11/05 05:27:56;;;;;;;0.50;0.10;;;11.00;1.00;;;;;;4910413;29;20464;-74
2022/11/05 05:30:24;;;;;;;0.50;0.10;;;11.00;1.00;;;;;;4910596;29;20445;-76
2022/11/05 05:32:52;;;;;;;0.50;0.10;;;11.00;1.00;;;;;;4914377;29;20468;-75
2022/11/05 05:35:21;;;;;;;0.50;0.10;;;11.00;1.00;;;;;;4913096;29;20457;-73
2022/11/05 05:37:49;;;;;;;0.50;0.10;;;11.00;1.00;;;;;;4914188;29;21061;-76
2022/11/05 05:40:16;;;;;;;0.50;0.10;;;11.00;1.00;;;;;;4911705;29;20449;-76
2022/11/05 05:42:44;;;;;;;0.50;0.10;;;11.00;1.00;;;;;;4911984;29;21062;-75
2022/11/05 05:45:12;;;;;;;0.50;0.10;;;11.00;1.00;;;;;;4912680;29;20465;-74
2022/11/05 05:47:40;;;;;;;0.50;0.10;;;10.90;1.00;;;;;;4912052;29;20465;-75
2022/11/05 05:50:08;;;;;;;0.50;0.10;;;10.90;1.00;;;;;;4910899;29;20453;-74
2022/11/05 05:52:37;;;;;;;0.50;0.10;;;10.90;1.00;;;;;;4912661;29;21082;-74
2022/11/05 05:55:05;;;;;;;0.50;0.10;;;10.90;1.00;;;;;;4912511;29;20446;-75
2022/11/05 05:57:34;;;;;;;0.50;0.10;;;10.90;1.00;;;;;;4918885;29;20508;-75
2022/11/05 06:00:01;;;;;;;0.50;0.10;;;10.90;1.00;;;;;;4919008;29;20500;-74
2022/11/05 06:02:30;;;;;;;0.50;0.10;;;10.90;1.00;;;;;;4918478;29;20515;-75
2022/11/05 06:04:58;;;;;;;0.50;0.10;;;10.90;1.00;;;;;;4918397;29;20994;-74
2022/11/05 06:07:26;;;;;;;0.50;0.10;;;10.90;1.00;;;;;;4918524;29;20828;-75
2022/11/05 06:09:55;;;;;;;0.50;0.10;;;10.90;1.00;;;;;;4918736;29;20507;-74
2022/11/05 06:12:22;;;;;;;0.50;0.10;;;11.00;1.00;;;;;;4921282;29;20480;-75
2022/11/05 06:14:50;;;;;;;0.50;0.10;;;11.00;1.00;;;;;;4919079;29;20523;-74
2022/11/05 06:17:18;;;;;;;0.50;0.10;;;11.00;1.00;;;;;;4918905;29;21161;-75
2022/11/05 06:19:46;;;;;;;0.50;0.10;;;11.00;1.00;;;;;;4919342;29;20504;-76
2022/11/05 06:22:14;;;;;;;0.50;0.10;;;11.00;1.00;;;;;;4918532;29;20535;-77
2022/11/05 06:24:42;;;;;;;0.50;0.10;;;11.00;1.00;;;;;;4918500;29;20516;-75
2022/11/05 06:27:11;;;;;;;0.50;0.10;;;11.00;1.00;;;;;;4918490;29;20544;-75
2022/11/05 06:29:39;;;;;;;0.50;0.10;;;11.00;1.00;;;;;;4917598;29;20457;-74
2022/11/05 06:32:07;;;;;;;0.50;0.10;;;10.90;1.00;;;;;;4917975;29;20476;-74
2022/11/05 06:34:35;;;;;;;0.60;0.10;;;10.90;1.00;;;;;;4917983;29;20517;-75
2022/11/05 06:37:03;;;;;;;0.50;0.10;;;12.30;1.00;;;;;;4918324;29;20457;-75
2022/11/05 06:39:31;;;;;;;0.50;0.10;;;10.90;1.00;;;;;;4917765;29;20614;-75
2022/11/05 06:41:58;;;;;;;0.50;0.10;;;11.00;1.00;;;;;;4918490;29;20479;-75
2022/11/05 06:44:48;;;;;;;0.50;0.10;;;11.00;1.00;;;;;;4926199;29;20475;-75
2022/11/05 06:47:15;;;;;;;0.50;0.10;;;11.00;1.00;;;;;;4928857;29;20453;-74
2022/11/05 06:49:43;;;;;;;0.50;0.10;;;11.00;1.00;;;;;;4929339;29;20461;-76
2022/11/05 06:52:12;;;;;;;0.50;0.10;;;11.00;1.00;;;;;;4921557;29;20468;-75
2022/11/05 06:54:41;;;;;;;0.50;0.10;;;11.00;1.00;;;;;;4920722;29;20987;-74
2022/11/05 06:57:09;;;;;;;0.50;0.10;;;11.00;1.00;;;;;;4920770;29;20461;-75
2022/11/05 06:59:38;;;;;;;0.50;0.10;;;11.00;1.00;;;;;;4922623;29;20998;-76
2022/11/05 07:02:09;;;;;;;0.50;0.10;;;11.00;1.00;;;;;;4919237;29;20557;-76
2022/11/05 07:04:37;;;;;;;0.50;0.10;;;11.00;1.00;;;;;;4920896;29;20516;-75
2022/11/05 07:07:05;;;;;;;0.50;0.10;;;11.00;1.00;;;;;;4924046;29;20987;-75
2022/11/05 07:09:33;;;;;;;0.50;0.10;;;11.00;1.00;;;;;;4927165;29;20611;-75
2022/11/05 07:12:01;;;;;;;0.50;0.10;;;11.00;1.00;;;;;;4925806;29;20477;-74
2022/11/05 07:14:28;;;;;;;0.50;0.10;;;11.00;1.00;;;;;;4917542;29;20453;-73
2022/11/05 07:16:57;;;;;;;0.50;0.10;;;11.00;1.00;;;;;;4912248;29;20956;-75
2022/11/05 07:19:26;;;;;;;0.50;0.10;;;11.00;1.00;;;;;;4927054;29;20480;-76
2022/11/05 07:21:54;;;;;;;0.50;0.10;;;11.00;1.00;;;;;;4926667;29;20491;-73
2022/11/05 07:24:21;;;;;;;0.50;0.10;;;11.00;1.00;;;;;;4927385;29;20497;-77
2022/11/05 07:26:49;;;;;;;0.50;0.10;;;11.00;1.00;;;;;;4927735;29;20916;-76
2022/11/05 07:29:17;;;;;;;0.50;0.10;;;11.00;1.00;;;;;;4928109;29;20480;-75
2022/11/05 07:31:46;;;;;;;0.50;0.10;;;11.00;1.00;;;;;;4926989;29;20517;-75
2022/11/05 07:34:14;;;;;;;2.60;2.50;;;11.10;1.00;;;;;;4922792;29;20484;-76
2022/11/05 07:36:43;;;;;;;0.50;0.10;;;11.10;1.00;;;;;;4922671;29;20453;-74
2022/11/05 07:39:11;;;;;;;0.50;0.10;;;11.00;1.00;;;;;;4925820;29;20495;-75
2022/11/05 07:41:38;;;;;;;0.50;0.10;;;11.00;1.00;;;;;;4923836;29;20971;-76
2022/11/05 07:44:06;;;;;;;0.50;0.10;;;11.00;1.00;;;;;;4924648;29;20453;-75
2022/11/05 07:46:34;;;;;;;0.50;0.10;;;11.00;1.00;;;;;;4924331;29;20465;-76
2022/11/05 07:49:02;;;;;;;0.50;0.10;;;11.10;1.00;;;;;;4923656;29;20457;-77
2022/11/05 07:51:30;;;;;;;0.50;0.10;;;11.10;1.00;;;;;;4927899;29;20461;-75
2022/11/05 07:53:59;;;;;;;0.50;0.10;;;11.20;1.00;;;;;;4925979;29;20460;-74
2022/11/05 07:56:27;;;;;;;0.50;0.10;;;11.20;1.00;;;;;;4925026;29;20467;-75
2022/11/05 07:58:55;;;;;;;0.50;0.10;;;11.20;1.00;;;;;;4921163;29;20582;-75
2022/11/05 08:01:23;;;;;;;0.50;0.10;;;11.30;1.00;;;;;;4918009;29;20492;-74
2022/11/05 08:03:51;;;;;;;0.50;0.10;;;11.30;1.00;;;;;;4917374;29;20528;-74
2022/11/05 08:06:19;;;;;;;0.50;0.10;;;11.30;1.00;;;;;;4918065;29;20479;-76
2022/11/05 08:08:47;;;;;;;0.50;0.10;;;11.30;1.00;;;;;;4917977;29;20441;-76
2022/11/05 08:11:17;;;;;;;0.50;0.10;;;11.30;1.00;;;;;;4915479;29;20483;-74
2022/11/05 08:13:45;;;;;;;0.50;0.10;;;11.30;1.00;;;;;;4918554;29;20945;-75
2022/11/05 08:16:14;;;;;;;0.50;0.10;;;11.40;1.00;;;;;;4921195;29;20460;-76
2022/11/05 08:18:43;;;;;;;0.50;0.10;;;11.40;1.00;;;;;;4921610;29;20485;-74
2022/11/05 08:21:11;;;;;;;0.50;0.10;;;11.40;1.00;;;;;;4926312;29;20480;-75
2022/11/05 08:23:41;;;;;;;0.50;0.10;;;11.40;1.00;;;;;;4922544;29;20966;-76
2022/11/05 08:26:10;;;;;;;0.50;0.10;;;11.50;1.00;;;;;;4924805;29;20440;-76
2022/11/05 08:28:39;;;;;;;0.50;0.10;;;11.50;1.00;;;;;;4921737;29;20452;-75
2022/11/05 08:31:07;;;;;;;0.50;0.10;;;11.70;1.00;;;;;;4923314;29;20528;-75
2022/11/05 08:33:35;;;;;;;0.60;0.10;;;11.70;1.00;;;;;;4912260;29;20569;-76
2022/11/05 08:36:04;;;;;;;0.50;0.10;;;11.70;1.00;;;;;;4907876;29;20450;-75
2022/11/05 08:38:34;;;;;;;0.60;0.10;;;11.80;1.00;;;;;;4912700;29;20486;-77
2022/11/05 08:41:05;;;;;;;0.50;0.10;;;11.80;1.00;;;;;;4907476;29;20470;-75
2022/11/05 08:43:33;;;;;;;0.50;0.10;;;11.80;1.00;;;;;;4916883;29;20508;-77
2022/11/05 08:46:02;;;;;;;0.50;0.10;;;11.90;1.00;;;;;;4918544;29;20512;-76
2022/11/05 08:48:30;;;;;;;0.50;0.10;;;11.90;1.00;;;;;;4898761;29;20449;-76
2022/11/05 08:51:00;;;;;;;0.50;0.10;;;11.90;1.00;;;;;;4903503;29;20477;-76
2022/11/05 08:53:30;;;;;;;0.50;0.10;;;11.90;1.00;;;;;;4915968;29;20512;-77
2022/11/05 08:55:59;;;;;;;0.50;0.10;;;11.90;1.00;;;;;;4916317;29;20503;-77
2022/11/05 08:58:27;;;;;;;0.50;0.10;;;11.90;1.00;;;;;;4916273;29;20457;-77
2022/11/05 09:00:55;;;;;;;0.50;0.10;;;12.00;1.00;;;;;;4915285;29;20614;-77
2022/11/05 09:03:32;;;;;;;0.60;0.10;;;12.00;1.00;;;;;;4916106;29;20425;-76
2022/11/05 09:06:00;;;;;;;0.50;0.10;;;12.00;1.00;;;;;;4916361;29;20521;-76
2022/11/05 09:08:28;;;;;;;0.50;0.10;;;12.00;1.00;;;;;;4916403;29;20457;-77
2022/11/05 09:10:56;;;;;;;0.60;0.10;;;12.00;1.00;;;;;;4915894;29;20492;-77
2022/11/05 09:13:24;;;;;;;0.50;0.10;;;12.00;1.00;;;;;;4908470;29;20466;-77
2022/11/05 09:15:53;;;;;;;0.50;0.10;;;12.00;1.00;;;;;;4906043;29;20536;-77
2022/11/05 09:18:21;;;;;;;0.50;0.10;;;12.10;1.00;;;;;;4915632;29;20591;-77
2022/11/05 09:20:50;;;;;;;0.60;0.10;;;12.10;1.00;;;;;;4914675;29;20899;-76
2022/11/05 09:23:18;;;;;;;0.60;0.10;;;12.10;1.00;;;;;;4913744;29;20872;-76
2022/11/05 09:25:46;;;;;;;0.60;0.10;;;12.20;1.00;;;;;;4915570;29;20448;-77
2022/11/05 09:28:15;;;;;;;0.50;0.10;;;12.20;1.00;;;;;;4913621;29;20512;-76
2022/11/05 09:30:46;;;;;;;0.50;0.10;;;12.30;1.00;;;;;;4915485;29;20738;-76
2022/11/05 09:33:15;;;;;;;0.60;0.10;;;12.30;1.00;;;;;;4898781;29;20936;-76
2022/11/05 09:35:43;;;;;;;0.57;0.10;;;12.40;1.00;;;;;;4912091;29;20848;-76
2022/11/05 09:38:12;;;;;;;0.57;0.10;;;12.40;1.00;;;;;;4907666;29;20466;-77
2022/11/05 09:40:44;;;;;;;0.60;0.10;;;12.40;1.00;;;;;;4908697;29;20484;-74
2022/11/05 09:43:19;;;;;;;0.60;0.10;;;12.40;1.00;;;;;;4912400;29;20508;-75
2022/11/05 09:45:49;;;;;;;2.10;2.00;;;12.40;1.00;;;;;;4908135;29;20459;-75
2022/11/05 09:48:22;;;;;;;0.60;0.10;;;12.40;1.00;;;;;;4915466;29;20481;-75
2022/11/05 09:50:52;;;;;;;0.50;0.10;;;12.40;1.00;;;;;;4914398;29;20464;-76
2022/11/05 09:53:23;;;;;;;0.53;0.20;;;12.40;1.00;;;;;;4913965;29;20457;-75
2022/11/05 09:55:54;;;;;;;0.57;0.10;;;12.30;1.00;;;;;;4897243;29;20466;-78
2022/11/05 09:58:31;;;;;;;0.50;0.10;;;12.30;1.00;;;;;;4920624;29;20491;-77
2022/11/05 10:00:59;;;;;;;0.60;0.10;;;12.30;1.00;;;;;;4918688;29;20488;-77
2022/11/05 10:03:29;;;;;;;0.50;0.10;;;12.30;1.00;;;;;;4912916;29;20462;-75
2022/11/05 10:06:08;;;;;;;0.60;0.10;;;12.30;1.00;;;;;;4908458;29;20518;-77
2022/11/05 10:08:41;;;;;;;0.60;0.10;;;12.30;1.00;;;;;;4914553;29;20460;-77
2022/11/05 10:11:14;;;;;;;0.60;0.20;;;12.30;1.00;;;;;;4917097;29;20464;-77
2022/11/05 10:13:46;;;;;;;0.60;0.10;;;12.30;1.00;;;;;;4918722;29;20457;-76
2022/11/05 10:16:29;;;;;;;0.50;0.10;;;12.30;1.00;;;;;;4907308;29;20470;-78
2022/11/05 10:19:06;;;;;;;0.50;0.10;;;12.50;1.00;;;;;;4919554;29;20464;-77
2022/11/05 10:21:34;;;;;;;0.60;0.10;;;12.60;1.00;;;;;;4910374;29;20491;-76
2022/11/05 10:24:23;;;;;;;0.80;0.30;;;12.70;1.00;;;;;;4917014;29;20504;-77
2022/11/05 10:26:52;;;;;;;0.60;0.10;;;12.70;1.00;;;;;;4917740;29;20465;-78
2022/11/05 10:29:26;;;;;;;0.60;0.10;;;12.80;1.00;;;;;;4910205;29;20838;-79
2022/11/05 10:31:55;;;;;;;0.60;0.10;;;12.90;1.00;;;;;;4914712;29;20492;-76
2022/11/05 10:34:27;;;;;;;0.60;0.10;;;13.00;1.00;;;;;;4914665;29;20485;-77
2022/11/05 10:36:55;;;;;;;0.60;0.10;;;13.00;1.00;;;;;;4917581;29;20512;-75
2022/11/05 10:39:26;;;;;;;0.60;0.10;;;13.00;1.00;;;;;;4904164;29;20454;-75
2022/11/05 10:42:14;;;;;;;0.60;0.10;;;13.10;1.00;;;;;;4914216;29;20536;-77
2022/11/05 10:44:49;;;;;;;0.60;0.10;;;13.20;1.00;;;;;;4907910;29;20460;-76
2022/11/05 10:47:45;;;;;;;0.60;0.10;;;13.30;1.00;;;;;;4902596;29;20450;-76
2022/11/05 10:50:17;;;;;;;0.60;0.10;;;13.30;1.00;;;;;;4912123;29;20457;-76
2022/11/05 10:52:53;;;;;;;0.60;0.10;;;13.50;1.00;;;;;;4917781;29;20461;-77
2022/11/05 10:55:25;;;;;;;0.60;0.10;;;13.60;1.00;;;;;;4905351;29;20568;-77
2022/11/05 10:57:54;;;;;;;0.60;0.10;;;13.70;1.00;;;;;;4907935;29;20454;-75
2022/11/05 11:00:27;;;;;;;24.07;2.47;;;13.70;1.00;;;;;;4918703;29;20818;-74
2022/11/05 11:02:57;;;;;;;0.60;0.10;;;13.80;1.00;;;;;;4917066;29;20528;-77
2022/11/05 11:05:28;;;;;;;0.60;0.10;;;13.80;1.00;;;;;;4919054;29;20445;-77
2022/11/05 11:08:05;;;;;;;0.60;0.20;;;13.90;1.00;;;;;;4910608;29;20450;-79
2022/11/05 11:10:51;;;;;;;1.10;0.63;;;14.00;1.00;;;;;;4918849;29;20441;-78
2022/11/05 11:13:21;;;;;;;0.60;0.10;;;14.00;1.00;;;;;;4912300;29;20446;-80
2022/11/05 11:15:50;;;;;;;0.60;0.10;;;14.10;1.00;;;;;;4912747;29;20999;-80
2022/11/05 11:18:26;;;;;;;0.60;0.23;;;14.00;1.00;;;;;;4922916;29;20460;-77
2022/11/05 11:21:04;;;;;;;0.60;0.10;;;13.80;1.00;;;;;;4924499;29;20500;-80
2022/11/05 11:23:37;;;;;;;0.90;0.40;;;13.80;1.00;;;;;;4919160;29;20467;-79
2022/11/05 11:26:08;;;;;;;0.60;0.10;;;13.70;1.00;;;;;;4929606;29;20501;-79
2022/11/05 11:28:39;;;;;;;0.60;0.10;;;13.60;1.00;;;;;;4933793;29;20512;-78
2022/11/05 11:31:11;;;;;;;0.60;0.10;;;13.60;1.00;;;;;;4934401;29;20532;-79
2022/11/05 11:33:42;;;;;;;0.60;0.10;;;13.80;1.00;;;;;;4921749;29;20545;-78
2022/11/05 11:36:11;;;;;;;0.60;0.10;;;13.80;1.00;;;;;;4930680;29;20484;-80
2022/11/05 11:38:40;;;;;;;0.60;0.10;;;14.00;1.00;;;;;;4929698;29;20461;-78
2022/11/05 11:41:25;;;;;;;0.60;0.10;;;14.10;1.00;;;;;;4929156;29;20516;-79
2022/11/05 11:43:56;;;;;;;0.60;0.10;;;14.10;1.00;;;;;;4924134;29;20457;-78
2022/11/05 11:46:24;;;;;;;2.00;0.47;;;14.10;1.00;;;;;;4928351;29;20472;-80
2022/11/05 11:48:52;;;;;;;0.60;0.10;;;13.70;1.00;;;;;;4935497;29;20540;-80
2022/11/05 11:51:30;;;;;;;1.13;1.03;;;13.60;1.00;;;;;;4918356;29;20481;-77
2022/11/05 11:54:00;;;;;;;0.60;0.10;;;13.60;1.00;;;;;;4920328;29;20963;-76
2022/11/05 11:56:31;;;;;;;0.87;0.70;;;13.60;1.00;;;;;;4920789;29;20498;-78
2022/11/05 11:59:03;;;;;;;0.60;0.10;;;13.70;1.00;;;;;;4931009;29;20456;-79
2022/11/05 12:01:59;;;;;;;0.60;0.10;;;13.90;1.00;;;;;;4922954;29;20485;-77
2022/11/05 12:04:45;;;;;;;0.60;0.10;;;13.80;1.00;;;;;;4906019;29;20456;-77
2022/11/05 12:07:31;;;;;;;0.80;0.40;;;13.80;1.00;;;;;;4934713;29;20459;-77
2022/11/05 12:10:13;;;;;;;0.60;0.10;;;13.80;1.00;;;;;;4934269;29;20456;-77
2022/11/05 12:12:52;;;;;;;0.60;0.10;;;13.70;1.00;;;;;;4936439;29;20485;-77
2022/11/05 12:15:40;;;;;;;0.60;0.10;;;13.80;1.00;;;;;;4930709;29;20446;-78
2022/11/05 12:18:16;;;;;;;3.03;2.83;;;13.80;1.00;;;;;;4932077;29;20448;-78
2022/11/05 12:21:01;;;;;;;0.60;0.20;;;13.70;1.00;;;;;;4935956;29;20504;-77
2022/11/05 12:23:41;;;;;;;0.60;0.20;;;13.70;1.00;;;;;;4928210;29;20459;-77
2022/11/05 12:26:21;;;;;;;0.60;0.30;;;13.60;1.00;;;;;;4923134;29;20995;-78
2022/11/05 12:29:05;;;;;;;0.60;0.20;;;13.60;1.00;;;;;;4924821;29;20509;-78
2022/11/05 12:31:56;;;;;;;0.60;0.10;;;13.70;1.00;;;;;;4925252;29;20505;-77
2022/11/05 12:34:42;;;;;;;0.60;0.10;;;13.80;1.00;;;;;;4927587;29;20437;-78
2022/11/05 12:37:26;;;;;;;0.70;0.33;;;13.80;1.00;;;;;;4923569;29;20452;-77
2022/11/05 12:40:16;;;;;;;0.60;0.10;;;13.80;1.00;;;;;;4920454;29;20504;-77
2022/11/05 12:43:04;;;;;;;0.70;0.30;;;13.60;1.00;;;;;;4920334;29;20493;-78
2022/11/05 12:45:46;;;;;;;0.60;0.20;;;13.70;1.00;;;;;;4919407;29;20779;-76
2022/11/05 12:49:03;;;;;;;0.80;0.27;;;13.70;1.00;;;;;;4920747;29;20492;-78
2022/11/05 12:51:43;;;;;;;0.60;0.27;;;13.80;1.00;;;;;;4917447;29;20476;-79
2022/11/05 12:54:22;;;;;;;0.60;0.10;;;13.80;1.00;;;;;;4926939;29;20452;-79
2022/11/05 12:56:53;;;;;;;2.17;0.43;;;13.80;1.00;;;;;;4922545;29;20520;-77
2022/11/05 12:59:25;;;;;;;0.60;0.10;;;13.60;1.00;;;;;;4921379;29;20510;-77
2022/11/05 13:02:01;;;;;;;0.60;0.20;;;13.60;1.00;;;;;;4923140;29;20496;-77
2022/11/05 13:04:39;;;;;;;1.63;0.97;;;13.60;1.00;;;;;;4919614;29;20453;-78
2022/11/05 13:07:11;;;;;;;0.60;0.10;;;13.60;1.00;;;;;;4901708;29;20465;-78
2022/11/05 13:09:44;;;;;;;0.60;0.10;;;13.40;1.00;;;;;;4912740;29;20898;-77
2022/11/05 13:12:14;;;;;;;1.10;0.60;;;13.50;1.00;;;;;;4902899;29;20470;-78
2022/11/05 13:14:45;;;;;;;0.70;0.30;;;13.40;1.00;;;;;;4918798;29;20603;-76
2022/11/05 13:17:19;;;;;;;0.60;0.20;;;13.30;1.00;;;;;;4903409;29;20450;-78
2022/11/05 13:19:51;;;;;;;0.80;0.37;;;13.30;1.00;;;;;;4914740;29;20457;-78
2022/11/05 13:22:29;;;;;;;0.60;0.20;;;13.20;1.00;;;;;;4915784;29;20948;-78
2022/11/05 13:25:02;;;;;;;1.27;0.70;;;13.10;1.00;;;;;;4917967;29;20445;-78
2022/11/05 13:27:56;;;;;;;1.00;0.40;;;12.90;1.00;;;;;;4924136;29;20435;-78
2022/11/05 13:30:26;;;;;;;0.97;0.30;;;12.90;1.00;;;;;;4913195;29;20460;-77
2022/11/05 13:32:59;;;;;;;0.60;0.20;;;12.90;1.00;;;;;;4899428;29;20465;-77
2022/11/05 13:35:31;;;;;;;0.67;0.30;;;12.80;1.00;;;;;;4916874;29;20536;-77
2022/11/05 13:41:03;;;;;;;0.60;0.40;;;12.60;1.00;;;;;;4912302;29;20517;-77
2022/11/05 13:43:47;;;;;;;0.60;0.10;;;12.50;1.00;;;;;;4916023;29;20467;-79
2022/11/05 13:46:34;;;;;;;0.60;0.10;;;12.50;1.00;;;;;;4927964;29;20467;-79
2022/11/05 13:49:33;;;;;;;0.60;0.10;;;12.60;1.00;;;;;;4921217;29;20457;-80
2022/11/05 13:52:15;;;;;;;0.60;0.10;;;12.60;1.00;;;;;;4919424;29;20465;-80
2022/11/05 13:55:01;;;;;;;0.60;0.10;;;12.60;1.00;;;;;;4921390;29;20476;-78
2022/11/05 13:58:09;;;;;;;0.60;0.10;;;12.60;1.00;;;;;;4915601;29;21002;-78
2022/11/05 14:00:43;;;;;;;0.60;0.10;;;12.60;1.00;;;;;;4915422;29;20444;-78
2022/11/05 14:03:17;;;;;;;0.60;0.10;;;12.60;1.00;;;;;;4918300;29;21200;-78
2022/11/05 14:05:55;;;;;;;0.60;0.10;;;12.60;1.00;;;;;;4918515;29;20460;-78
2022/11/05 14:08:27;;;;;;;0.60;0.10;;;12.50;1.00;;;;;;4913644;29;20535;-77
2022/11/05 14:11:02;;;;;;;0.60;0.10;;;12.50;1.00;;;;;;4919691;29;20473;-77
2022/11/05 14:13:34;;;;;;;0.60;0.10;;;12.50;1.00;;;;;;4908946;29;20445;-77
2022/11/05 14:16:06;;;;;;;0.60;0.10;;;12.50;1.00;;;;;;4922448;29;20896;-78
2022/11/05 14:18:38;;;;;;;0.60;0.10;;;12.50;1.00;;;;;;4919819;29;21022;-76
2022/11/05 14:21:37;;;;;;;0.60;0.10;;;12.50;1.00;;;;;;4921191;29;20477;-78
2022/11/05 14:24:27;;;;;;;0.60;0.10;;;12.60;1.00;;;;;;4922044;29;20460;-77
2022/11/05 14:27:27;;;;;;;0.60;0.20;;;12.60;1.00;;;;;;4900864;29;20514;-77
2022/11/05 14:29:56;;;;;;;0.50;0.10;;;12.60;1.00;;;;;;4888921;29;20855;-77
2022/11/05 14:32:26;;;;;;;0.60;0.10;;;12.60;1.00;;;;;;4900920;29;20465;-77
2022/11/05 14:35:03;;;;;;;0.60;0.10;;;12.60;1.00;;;;;;4917585;29;20452;-76
2022/11/05 14:37:35;;;;;;;0.60;0.10;;;12.60;1.00;;;;;;4919543;29;20503;-77
2022/11/05 14:40:28;;;;;;;0.60;0.10;;;12.60;1.00;;;;;;4919546;29;20484;-77
2022/11/05 14:42:58;;;;;;;0.60;0.10;;;12.50;1.00;;;;;;4914994;29;21025;-77
2022/11/05 14:45:30;;;;;;;0.70;0.40;;;12.50;1.00;;;;;;4918301;29;20849;-78
2022/11/05 14:47:59;;;;;;;0.60;0.10;;;12.40;1.00;;;;;;4919617;29;20457;-77
2022/11/05 14:50:33;;;;;;;0.60;0.20;;;12.30;1.00;;;;;;4919190;29;20492;-77
2022/11/05 14:53:10;;;;;;;0.60;0.10;;;12.30;1.00;;;;;;4913010;29;20844;-76
2022/11/05 14:55:40;;;;;;;0.60;0.20;;;;;;;;;;4921766;29;20453;-76
2022/11/05 14:58:28;;;;;;;0.60;0.40;;;12.20;1.00;;;;;;4920719;29;20456;-78
2022/11/05 15:00:57;;;;;;;27.77;1.60;;;12.10;1.00;;;;;;4918179;29;20468;-78
2022/11/05 15:03:51;;;;;;;0.60;0.10;;;12.10;1.00;;;;;;4917988;29;20579;-77
2022/11/05 15:06:25;;;;;;;1.87;1.77;;;12.10;1.00;;;;;;4919958;29;20568;-79
2022/11/05 15:09:13;;;;;;;0.53;0.10;;;12.10;1.00;;;;;;4925206;29;20512;-78
2022/11/05 15:11:48;;;;;;;0.80;0.40;;;12.10;1.00;;;;;;4929868;29;20472;-78
2022/11/05 15:14:22;;;;;;;0.70;0.30;;;11.90;1.00;;;;;;4924995;29;20464;-77
2022/11/05 15:16:52;;;;;;;0.70;0.60;;;11.90;1.00;;;;;;4907695;29;20486;-79
2022/11/05 15:19:25;;;;;;;0.80;0.23;;;11.70;1.00;;;;;;4911283;29;20509;-77
2022/11/05 15:21:56;;;;;;;0.63;0.33;;;11.50;1.00;;;;;;4919318;29;20469;-78
2022/11/05 15:24:27;;;;;;;0.60;0.10;;;11.50;1.00;;;;;;4920662;29;20452;-78
2022/11/05 15:27:03;;;;;;;0.70;0.30;;;11.50;1.00;;;;;;4920842;29;20457;-77
2022/11/05 15:29:32;;;;;;;0.87;0.40;;;11.50;1.00;;;;;;4920706;29;20532;-78
2022/11/05 15:32:01;;;;;;;0.60;0.10;;;11.40;1.00;;;;;;4925190;29;20472;-78
2022/11/05 15:34:31;;;;;;;0.60;0.10;;;11.40;1.00;;;;;;4919963;29;20465;-78
2022/11/05 15:37:01;;;;;;;0.70;0.30;;;11.40;1.00;;;;;;4920440;29;20568;-78
2022/11/05 15:39:33;;;;;;;0.60;0.10;;;11.50;1.00;;;;;;4922300;29;20477;-77
2022/11/05 15:42:04;;;;;;;0.60;0.10;;;11.60;1.00;;;;;;4911500;29;20478;-78
2022/11/05 15:44:33;;;;;;;0.60;0.10;;;11.60;1.00;;;;;;4912804;29;20449;-78
2022/11/05 15:47:16;;;;;;;0.60;0.20;;;11.60;1.00;;;;;;4925579;29;20453;-78
2022/11/05 15:49:45;;;;;;;0.60;0.10;;;11.60;1.00;;;;;;4922458;29;20465;-79
2022/11/05 15:52:15;;;;;;;0.60;0.40;;;11.50;1.00;;;;;;4902427;29;20904;-78
2022/11/05 15:54:44;;;;;;;1.23;0.40;;;11.50;1.00;;;;;;4914151;29;20452;-78
2022/11/05 15:57:25;;;;;;;0.60;0.20;;;11.50;1.00;;;;;;4927574;29;20531;-76
2022/11/05 15:59:53;;;;;;;0.60;0.20;;;11.50;1.00;;;;;;4920971;29;20460;-76
2022/11/05 16:02:30;;;;;;;0.50;0.10;;;11.40;1.00;;;;;;4920070;29;20474;-76
2022/11/05 16:04:59;;;;;;;0.57;0.10;;;11.50;1.00;;;;;;4916166;29;20440;-76
2022/11/05 16:07:28;;;;;;;0.70;0.53;;;11.40;1.00;;;;;;4919999;29;20536;-77
2022/11/05 16:09:59;;;;;;;0.60;0.20;;;11.40;1.00;;;;;;4921350;29;20472;-78
2022/11/05 16:12:33;;;;;;;0.50;0.10;;;11.40;1.00;;;;;;4901195;29;20501;-78
2022/11/05 16:15:17;;;;;;;0.60;0.20;;;11.40;1.00;;;;;;4919258;29;20528;-78
2022/11/05 16:17:49;;;;;;;0.60;0.10;;;11.40;1.00;;;;;;4919152;29;20512;-78
2022/11/05 16:20:27;;;;;;;0.60;0.10;;;11.30;1.00;;;;;;4919942;29;20453;-78
2022/11/05 16:22:57;;;;;;;0.50;0.20;;;11.40;1.00;;;;;;4918906;29;20484;-78
2022/11/05 16:25:35;;;;;;;0.60;0.40;;;11.40;1.00;;;;;;4915752;29;20487;-76
2022/11/05 16:28:04;;;;;;;0.60;0.20;;;11.40;1.00;;;;;;4919137;29;20520;-76
2022/11/05 16:30:31;;;;;;;0.60;0.10;;;11.30;1.00;;;;;;4905351;29;21024;-79
2022/11/05 16:33:06;;;;;;;0.60;0.10;;;11.20;1.00;;;;;;4916652;29;20550;-78
2022/11/05 16:35:37;;;;;;;0.60;0.40;;;11.30;1.00;;;;;;4915790;29;20625;-79
2022/11/05 16:38:05;;;;;;;0.80;0.60;;;11.30;1.00;;;;;;4915679;29;20509;-78
2022/11/05 16:40:34;;;;;;;1.30;1.00;;;11.20;1.00;;;;;;4925326;29;20456;-78
2022/11/05 16:43:15;;;;;;;0.60;0.10;;;11.20;1.00;;;;;;4919826;29;20540;-78
2022/11/05 16:45:43;;;;;;;0.60;0.20;;;11.20;1.00;;;;;;4903977;29;20509;-79
2022/11/05 16:48:12;;;;;;;0.53;0.10;;;11.20;1.00;;;;;;4922125;29;20454;-78
2022/11/05 16:50:41;;;;;;;0.60;0.20;;;11.10;1.00;;;;;;4917098;29;20833;-79
2022/11/05 16:53:10;;;;;;;1.90;1.77;;;11.10;1.00;;;;;;4905915;29;20470;-78
2022/11/05 16:55:42;;;;;;;0.60;0.10;;;11.10;1.00;;;;;;4915862;29;20464;-79
2022/11/05 16:58:18;;;;;;;0.60;0.20;;;11.10;1.00;;;;;;4909669;29;20981;-78
2022/11/05 17:00:46;;;;;;;0.60;0.10;;;11.10;1.00;;;;;;4903908;29;20457;-79
2022/11/05 17:03:13;;;;;;;0.60;0.10;;;11.10;1.00;;;;;;4902003;29;20473;-77
2022/11/05 17:05:41;;;;;;;2.00;0.47;;;11.10;1.00;;;;;;4911576;29;20480;-78
2022/11/05 17:08:09;;;;;;;0.60;0.20;;;11.10;1.00;;;;;;4917901;29;20452;-78
2022/11/05 17:10:39;;;;;;;0.60;0.33;;;10.90;1.00;;;;;;4916939;29;20540;-78
2022/11/05 17:13:07;;;;;;;0.60;0.40;;;10.90;1.00;;;;;;4911154;29;20483;-79
2022/11/05 17:15:35;;;;;;;0.70;0.50;;;10.80;1.00;;;;;;4919292;29;20453;-78
2022/11/05 17:18:07;;;;;;;1.63;0.40;;;10.60;1.00;;;;;;4914753;29;20463;-78
2022/11/05 17:20:43;;;;;;;1.13;0.83;;;10.50;1.00;;;;;;4921912;29;20460;-77
2022/11/05 17:23:12;;;;;;;3.33;1.63;;;10.50;1.00;;;;;;4922593;29;20484;-76
2022/11/05 17:25:43;;;;;;;1.37;0.60;;;10.40;1.00;;;;;;4922898;29;20452;-80
2022/11/05 17:28:12;;;;;;;0.70;0.50;;;10.30;1.00;;;;;;4926589;29;20512;-78
2022/11/05 17:30:40;;;;;;;0.70;0.60;;;10.20;1.00;;;;;;4927147;29;20456;-79
2022/11/05 17:33:10;;;;;;;2.47;2.20;;;;;;;;;;4930843;29;20491;-77
2022/11/05 17:35:39;;;;;;;3.00;1.97;;;10.20;1.00;;;;;;4930477;29;20453;-79
2022/11/05 17:38:07;;;;;;;1.47;0.93;;;10.20;1.00;;;;;;4920309;29;20566;-77
2022/11/05 17:40:36;;;;;;;3.70;1.60;;;10.10;1.00;;;;;;4916184;29;20464;-78
2022/11/05 17:43:06;;;;;;;0.60;0.20;;;10.10;1.00;;;;;;4923837;29;20457;-80
2022/11/05 17:45:34;;;;;;;1.13;0.30;;;10.10;1.00;;;;;;4917944;29;20863;-78
2022/11/05 17:48:02;;;;;;;1.03;0.77;;;10.20;1.00;;;;;;4924898;29;20610;-78
2022/11/05 17:50:30;;;;;;;0.57;0.10;;;10.10;1.00;;;;;;4926300;29;20452;-79
2022/11/05 17:52:58;;;;;;;0.50;0.30;;;10.10;1.00;;;;;;4923477;29;20456;-78
2022/11/05 17:55:25;;;;;;;0.90;0.57;;;10.10;1.00;;;;;;4922913;29;20531;-77